createdAt,value
2019-03-09T00:01:46.790Z,100620.89
2019-03-09T00:06:38.894Z,100620.52
2019-03-09T00:11:30.976Z,100609.86
2019-03-09T00:16:23.737Z,100601.01
2019-03-09T00:21:15.450Z,100608.09
2019-03-09T00:26:07.130Z,100610.91
2019-03-09T00:31:02.665Z,100604.68
2019-03-09T00:35:53.707Z,100594.54
2019-03-09T00:40:45.434Z,100598.94
2019-03-09T00:45:37.181Z,100591.51
2019-03-09T00:50:28.902Z,100577.09
2019-03-09T00:55:21.036Z,100569.14
2019-03-09T01:00:12.740Z,100572.60
2019-03-09T01:05:04.891Z,100561.98
2019-03-09T01:09:57.679Z,100549.53
2019-03-09T01:14:49.430Z,100537.81
2019-03-09T01:19:41.677Z,100513.16
2019-03-09T01:24:33.651Z,100519.81
2019-03-09T01:29:25.709Z,100485.64
2019-03-09T01:34:17.726Z,100502.59
2019-03-09T01:39:10.338Z,100496.55
2019-03-09T01:44:02.199Z,100486.66
2019-03-09T01:48:54.377Z,100470.33
2019-03-09T01:53:46.414Z,100463.80
2019-03-09T01:58:35.941Z,100454.52
2019-03-09T02:03:27.928Z,100448.55
2019-03-09T02:08:21.537Z,100450.34
2019-03-09T02:13:11.301Z,100438.82
2019-03-09T02:18:02.923Z,100431.80
2019-03-09T02:22:54.892Z,100430.05
2019-03-09T02:27:46.951Z,100438.09
2019-03-09T02:32:38.913Z,100434.97
2019-03-09T02:37:30.415Z,100439.17
2019-03-09T02:42:22.411Z,100413.90
2019-03-09T02:47:13.645Z,100432.78
2019-03-09T02:52:05.392Z,100437.08
2019-03-09T02:56:56.842Z,100433.55
2019-03-09T03:01:48.788Z,100439.40
2019-03-09T03:06:39.153Z,100424.95
2019-03-09T03:11:31.475Z,100427.14
2019-03-09T03:16:22.501Z,100437.88
2019-03-09T03:21:13.761Z,100424.77
2019-03-09T03:26:05.953Z,100436.75
2019-03-09T03:30:58.316Z,100421.95
2019-03-09T03:35:50.162Z,100420.64
2019-03-09T03:40:42.212Z,100427.88
2019-03-09T03:45:34.073Z,100435.89
2019-03-09T03:50:26.193Z,100431.97
2019-03-09T03:55:18.453Z,100432.58
2019-03-09T04:00:10.580Z,100441.72
2019-03-09T04:05:02.478Z,100455.72
2019-03-09T04:09:54.634Z,100461.38
2019-03-09T04:14:46.757Z,100470.20
2019-03-09T04:19:38.743Z,100490.02
2019-03-09T04:24:30.844Z,100505.67
2019-03-09T04:29:22.972Z,100526.80
2019-03-09T04:34:13.070Z,100527.41
2019-03-09T04:39:04.883Z,100541.45
2019-03-09T04:43:56.944Z,100537.36
2019-03-09T04:48:48.687Z,100548.00
2019-03-09T04:53:40.846Z,100551.66
2019-03-09T04:58:32.649Z,100556.55
2019-03-09T05:03:24.725Z,100556.64
2019-03-09T05:08:16.612Z,100561.02
2019-03-09T05:13:08.926Z,100560.11
2019-03-09T05:17:59.162Z,100560.11
2019-03-09T05:22:50.565Z,100578.28
2019-03-09T05:27:40.637Z,100596.64
2019-03-09T05:32:32.886Z,100605.84
2019-03-09T05:37:23.064Z,100595.77
2019-03-09T05:42:15.403Z,100608.44
2019-03-09T05:47:05.902Z,100601.09
2019-03-09T05:51:56.935Z,100594.96
2019-03-09T05:56:46.770Z,100579.30
2019-03-09T06:01:36.469Z,100597.03
2019-03-09T06:06:26.460Z,100601.70
2019-03-09T06:11:16.313Z,100612.05
2019-03-09T06:16:06.625Z,100613.42
2019-03-09T06:20:56.397Z,100613.75
2019-03-09T06:25:47.958Z,100649.12
2019-03-09T06:30:37.528Z,100673.43
2019-03-09T06:35:27.267Z,100678.44
2019-03-09T06:40:17.360Z,100682.31
2019-03-09T06:45:07.333Z,100676.67
2019-03-09T06:49:59.097Z,100683.33
2019-03-09T06:54:50.694Z,100680.69
2019-03-09T06:59:41.074Z,100712.86
2019-03-09T07:04:33.163Z,100713.93
2019-03-09T07:09:26.717Z,100724.82
2019-03-09T07:14:19.495Z,100711.01
2019-03-09T07:19:08.765Z,100700.78
2019-03-09T07:23:58.700Z,100712.95
2019-03-09T07:28:48.553Z,100747.05
2019-03-09T07:33:38.978Z,100734.07
2019-03-09T07:38:28.601Z,100745.05
2019-03-09T07:43:18.356Z,100728.31
2019-03-09T07:48:07.777Z,100725.25
2019-03-09T07:52:59.846Z,100735.92
2019-03-09T07:57:52.084Z,100751.46
2019-03-09T08:02:42.233Z,100748.73
2019-03-09T08:07:32.528Z,100737.37
2019-03-09T08:12:25.871Z,100751.95
2019-03-09T08:17:16.007Z,100733.77
2019-03-09T08:22:06.612Z,100720.91
2019-03-09T08:26:58.949Z,100709.59
2019-03-09T08:31:51.170Z,100721.41
2019-03-09T08:36:44.978Z,100745.83
2019-03-09T08:41:36.616Z,100742.30
2019-03-09T08:46:28.082Z,100750.36
2019-03-09T08:51:18.834Z,100765.58
2019-03-09T08:56:10.646Z,100774.64
2019-03-09T09:01:00.143Z,100754.66
2019-03-09T09:05:51.411Z,100757.09
2019-03-09T09:10:43.431Z,100763.20
2019-03-09T09:15:34.962Z,100746.31
2019-03-09T09:20:27.196Z,100726.75
2019-03-09T09:25:21.462Z,100737.96
2019-03-09T09:30:13.298Z,100748.36
2019-03-09T09:35:04.904Z,100788.47
2019-03-09T09:39:57.091Z,100781.47
2019-03-09T09:44:49.309Z,100782.53
2019-03-09T09:49:41.726Z,100783.27
2019-03-09T09:54:33.654Z,100744.92
2019-03-09T09:59:28.147Z,100747.30
2019-03-09T10:04:20.028Z,100719.87
2019-03-09T10:09:12.174Z,100720.06
2019-03-09T10:14:04.213Z,100723.38
2019-03-09T10:18:56.286Z,100736.34
2019-03-09T10:23:48.419Z,100738.52
2019-03-09T10:28:40.307Z,100731.14
2019-03-09T10:33:32.138Z,100704.06
2019-03-09T10:38:24.012Z,100693.73
2019-03-09T10:43:15.856Z,100677.48
2019-03-09T10:48:08.090Z,100656.18
2019-03-09T10:53:00.207Z,100682.02
2019-03-09T10:57:52.520Z,100667.11
2019-03-09T11:02:44.690Z,100660.20
2019-03-09T11:07:36.879Z,100652.80
2019-03-09T11:12:28.890Z,100648.93
2019-03-09T11:17:23.601Z,100670.86
2019-03-09T11:22:15.355Z,100668.44
2019-03-09T11:27:08.457Z,100648.46
2019-03-09T11:32:00.440Z,100656.44
2019-03-09T11:36:52.594Z,100632.04
2019-03-09T11:41:44.622Z,100655.34
2019-03-09T11:46:38.906Z,100635.81
2019-03-09T11:51:30.833Z,100598.48
2019-03-09T11:56:23.186Z,100556.98
2019-03-09T12:01:15.455Z,100553.22
2019-03-09T12:06:07.934Z,100559.59
2019-03-09T12:11:00.185Z,100531.23
2019-03-09T12:15:52.759Z,100554.66
2019-03-09T12:20:45.313Z,100512.48
2019-03-09T12:25:37.570Z,100543.81
2019-03-09T12:30:31.223Z,100509.43
2019-03-09T12:35:23.187Z,100502.64
2019-03-09T12:40:15.373Z,100514.52
2019-03-09T12:45:07.595Z,100480.95
2019-03-09T12:49:59.345Z,100481.32
2019-03-09T12:54:51.195Z,100445.69
2019-03-09T12:59:43.267Z,100446.84
2019-03-09T13:04:35.220Z,100441.41
2019-03-09T13:09:27.457Z,100427.81
2019-03-09T13:14:19.578Z,100412.16
2019-03-09T13:19:12.123Z,100412.69
2019-03-09T13:24:03.973Z,100406.80
2019-03-09T13:28:57.006Z,100399.25
2019-03-09T13:33:48.740Z,100397.50
2019-03-09T13:38:40.529Z,100426.44
2019-03-09T13:43:31.821Z,100438.45
2019-03-09T13:48:23.318Z,100436.78
2019-03-09T13:53:15.319Z,100418.02
2019-03-09T13:58:07.721Z,100381.88
2019-03-09T14:02:59.893Z,100372.52
2019-03-09T14:07:52.415Z,100340.47
2019-03-09T14:12:45.099Z,100334.41
2019-03-09T14:17:37.289Z,100351.77
2019-03-09T14:22:29.424Z,100377.80
2019-03-09T14:27:21.838Z,100365.53
2019-03-09T14:32:13.357Z,100360.81
2019-03-09T14:37:05.065Z,100359.02
2019-03-09T14:41:56.861Z,100395.29
2019-03-09T14:46:49.079Z,100407.42
2019-03-09T14:51:40.916Z,100388.14
2019-03-09T14:56:33.106Z,100387.08
2019-03-09T15:01:25.265Z,100371.49
2019-03-09T15:06:17.546Z,100351.12
2019-03-09T15:11:09.543Z,100360.20
2019-03-09T15:16:03.009Z,100372.09
2019-03-09T15:20:54.586Z,100384.05
2019-03-09T15:25:46.574Z,100357.66
2019-03-09T15:30:40.618Z,100386.66
2019-03-09T15:35:32.210Z,100399.22
2019-03-09T15:40:24.134Z,100486.09
2019-03-09T15:45:15.985Z,100472.97
2019-03-09T15:50:07.285Z,100426.81
2019-03-09T15:54:59.190Z,100484.23
2019-03-09T15:59:51.109Z,100491.69
2019-03-09T16:04:44.066Z,100520.44
2019-03-09T16:09:36.025Z,100558.84
2019-03-09T16:14:27.942Z,100601.91
2019-03-09T16:19:21.346Z,100659.81
2019-03-09T16:24:12.471Z,100689.09
2019-03-09T16:29:04.237Z,100699.78
2019-03-09T16:33:55.790Z,100702.63
2019-03-09T16:38:47.613Z,100674.52
2019-03-09T16:43:39.531Z,100700.46
2019-03-09T16:48:31.397Z,100711.88
2019-03-09T16:53:23.355Z,100728.91
2019-03-09T16:58:15.298Z,100744.05
2019-03-09T17:03:07.342Z,100749.91
2019-03-09T17:07:59.458Z,100786.94
2019-03-09T17:12:51.559Z,100793.16
2019-03-09T17:17:43.575Z,100800.38
2019-03-09T17:22:35.748Z,100821.92
2019-03-09T17:27:28.037Z,100837.66
2019-03-09T17:32:27.420Z,100859.90
2019-03-09T17:37:17.693Z,100870.27
2019-03-09T17:42:09.761Z,100872.91
2019-03-09T17:47:01.666Z,100891.59
2019-03-09T17:51:55.545Z,100882.23
2019-03-09T17:56:49.241Z,100905.16
2019-03-09T18:01:41.030Z,100901.28
2019-03-09T18:06:32.939Z,100928.87
2019-03-09T18:11:25.026Z,100935.97
2019-03-09T18:16:16.982Z,100946.66
2019-03-09T18:21:09.222Z,100962.33
2019-03-09T18:26:01.034Z,100968.02
2019-03-09T18:30:52.942Z,100980.00
2019-03-09T18:35:45.103Z,100987.75
2019-03-09T18:40:37.288Z,100996.79
2019-03-09T18:45:28.940Z,101001.09
2019-03-09T18:50:20.845Z,101006.37
2019-03-09T18:55:12.891Z,101024.20
2019-03-09T19:00:04.883Z,101023.46
2019-03-09T19:04:56.726Z,101035.00
2019-03-09T19:09:48.958Z,101041.80
2019-03-09T19:14:43.013Z,101039.21
2019-03-09T19:19:35.410Z,101038.72
2019-03-09T19:24:26.960Z,101050.86
2019-03-09T19:29:21.282Z,101053.14
2019-03-09T19:34:15.261Z,101063.16
2019-03-09T19:39:06.945Z,101072.91
2019-03-09T19:43:58.950Z,101077.48
2019-03-09T19:48:51.558Z,101082.47
2019-03-09T19:53:43.204Z,101084.30
2019-03-09T19:58:35.373Z,101074.84
2019-03-09T20:03:28.427Z,101085.54
2019-03-09T20:08:20.324Z,101080.25
2019-03-09T20:13:12.466Z,101083.77
2019-03-09T20:18:04.190Z,101081.63
2019-03-09T20:22:56.420Z,101086.47
2019-03-09T20:27:48.542Z,101090.03
2019-03-09T20:32:40.730Z,101091.65
2019-03-09T20:37:32.654Z,101104.48
2019-03-09T20:42:24.555Z,101116.19
2019-03-09T20:47:16.604Z,101108.79
2019-03-09T20:52:08.919Z,101115.81
2019-03-09T20:57:01.015Z,101115.91
2019-03-09T21:01:53.861Z,101112.20
2019-03-09T21:06:45.736Z,101110.64
2019-03-09T21:11:37.921Z,101106.91
2019-03-09T21:16:30.878Z,101098.66
2019-03-09T21:21:22.895Z,101100.78
2019-03-09T21:26:15.033Z,101105.05
2019-03-09T21:31:07.731Z,101106.87
2019-03-09T21:35:59.679Z,101101.88
2019-03-09T21:40:51.523Z,101105.23
2019-03-09T21:45:43.528Z,101098.37
2019-03-09T21:50:36.108Z,101103.05
2019-03-09T21:55:28.220Z,101090.59
2019-03-09T22:00:20.227Z,101096.95
2019-03-09T22:05:12.322Z,101094.86
2019-03-09T22:10:04.477Z,101107.61
2019-03-09T22:14:56.478Z,101110.56
2019-03-09T22:19:48.720Z,101111.05
2019-03-09T22:24:40.805Z,101097.76
2019-03-09T22:29:32.822Z,101108.77
2019-03-09T22:34:25.087Z,101104.58
2019-03-09T22:39:16.949Z,101098.59
2019-03-09T22:44:09.234Z,101092.33
2019-03-09T22:49:01.381Z,101094.13
2019-03-09T22:53:53.323Z,101093.23
2019-03-09T22:58:45.857Z,101098.23
2019-03-09T23:03:38.296Z,101098.14
2019-03-09T23:08:30.427Z,101089.74
2019-03-09T23:13:22.656Z,101083.55
2019-03-09T23:18:15.419Z,101080.55
2019-03-09T23:23:08.033Z,101067.05
2019-03-09T23:27:59.559Z,101069.76
2019-03-09T23:32:51.511Z,101068.75
2019-03-09T23:37:45.674Z,101070.00
2019-03-09T23:42:38.005Z,101063.58
2019-03-09T23:47:33.050Z,101066.69
2019-03-09T23:52:26.763Z,101063.83
2019-03-09T23:57:18.549Z,101055.21
